sensor_id;sensor_type;location;lat;lon;timestamp;P1;durP1;ratioP1;P2;durP2;ratioP2
23390;SDS011;11868;45.606;5.302;2022-08-19T00:02:04;8.95;;;4.97;;
23390;SDS011;11868;45.606;5.302;2022-08-19T00:04:32;5.68;;;4.45;;
23390;SDS011;11868;45.606;5.302;2022-08-19T00:06:59;5.55;;;4.70;;
23390;SDS011;11868;45.606;5.302;2022-08-19T00:09:25;5.22;;;4.30;;
23390;SDS011;11868;45.606;5.302;2022-08-19T00:11:52;5.78;;;5.18;;
23390;SDS011;11868;45.606;5.302;2022-08-19T00:14:20;5.25;;;4.72;;
23390;SDS011;11868;45.606;5.302;2022-08-19T00:16:47;5.60;;;4.75;;
23390;SDS011;11868;45.606;5.302;2022-08-19T00:19:13;6.63;;;4.63;;
23390;SDS011;11868;45.606;5.302;2022-08-19T00:21:39;5.90;;;4.75;;
23390;SDS011;11868;45.606;5.302;2022-08-19T00:24:06;6.78;;;5.60;;
23390;SDS011;11868;45.606;5.302;2022-08-19T00:26:33;5.93;;;5.03;;
23390;SDS011;11868;45.606;5.302;2022-08-19T00:28:59;5.60;;;5.07;;
23390;SDS011;11868;45.606;5.302;2022-08-19T00:31:26;6.40;;;5.80;;
23390;SDS011;11868;45.606;5.302;2022-08-19T00:33:52;10.32;;;5.18;;
23390;SDS011;11868;45.606;5.302;2022-08-19T00:36:18;6.13;;;5.40;;
23390;SDS011;11868;45.606;5.302;2022-08-19T00:38:43;6.10;;;5.50;;
23390;SDS011;11868;45.606;5.302;2022-08-19T00:41:11;8.68;;;5.55;;
23390;SDS011;11868;45.606;5.302;2022-08-19T00:43:39;9.98;;;5.55;;
23390;SDS011;11868;45.606;5.302;2022-08-19T00:46:06;7.38;;;6.10;;
23390;SDS011;11868;45.606;5.302;2022-08-19T00:48:32;6.22;;;5.35;;
23390;SDS011;11868;45.606;5.302;2022-08-19T00:50:58;6.05;;;5.45;;
23390;SDS011;11868;45.606;5.302;2022-08-19T00:53:26;7.55;;;5.50;;
23390;SDS011;11868;45.606;5.302;2022-08-19T00:55:53;8.80;;;6.13;;
23390;SDS011;11868;45.606;5.302;2022-08-19T00:58:21;6.95;;;6.13;;
23390;SDS011;11868;45.606;5.302;2022-08-19T01:00:48;11.05;;;6.13;;
23390;SDS011;11868;45.606;5.302;2022-08-19T01:03:15;6.25;;;5.65;;
23390;SDS011;11868;45.606;5.302;2022-08-19T01:05:44;7.28;;;6.38;;
23390;SDS011;11868;45.606;5.302;2022-08-19T01:08:10;10.20;;;6.55;;
23390;SDS011;11868;45.606;5.302;2022-08-19T01:10:37;7.85;;;7.05;;
23390;SDS011;11868;45.606;5.302;2022-08-19T01:13:05;7.83;;;6.70;;
23390;SDS011;11868;45.606;5.302;2022-08-19T01:15:34;9.95;;;7.13;;
23390;SDS011;11868;45.606;5.302;2022-08-19T01:18:05;7.70;;;7.05;;
23390;SDS011;11868;45.606;5.302;2022-08-19T01:20:31;10.00;;;7.10;;
23390;SDS011;11868;45.606;5.302;2022-08-19T01:22:58;8.10;;;7.38;;
23390;SDS011;11868;45.606;5.302;2022-08-19T01:25:25;8.65;;;7.60;;
23390;SDS011;11868;45.606;5.302;2022-08-19T01:27:57;8.23;;;7.28;;
23390;SDS011;11868;45.606;5.302;2022-08-19T01:30:25;9.07;;;7.78;;
23390;SDS011;11868;45.606;5.302;2022-08-19T01:32:53;10.55;;;7.68;;
23390;SDS011;11868;45.606;5.302;2022-08-19T01:35:19;11.10;;;8.50;;
23390;SDS011;11868;45.606;5.302;2022-08-19T01:37:56;9.05;;;8.13;;
23390;SDS011;11868;45.606;5.302;2022-08-19T01:40:25;12.33;;;8.07;;
23390;SDS011;11868;45.606;5.302;2022-08-19T01:42:53;8.30;;;7.30;;
23390;SDS011;11868;45.606;5.302;2022-08-19T01:45:19;8.07;;;7.28;;
23390;SDS011;11868;45.606;5.302;2022-08-19T01:47:46;10.02;;;7.32;;
23390;SDS011;11868;45.606;5.302;2022-08-19T01:50:12;8.45;;;7.00;;
23390;SDS011;11868;45.606;5.302;2022-08-19T01:52:38;7.57;;;6.78;;
23390;SDS011;11868;45.606;5.302;2022-08-19T01:55:07;7.63;;;6.68;;
23390;SDS011;11868;45.606;5.302;2022-08-19T01:57:35;8.57;;;7.78;;
23390;SDS011;11868;45.606;5.302;2022-08-19T02:00:00;9.10;;;7.13;;
23390;SDS011;11868;45.606;5.302;2022-08-19T02:02:30;7.80;;;6.63;;
23390;SDS011;11868;45.606;5.302;2022-08-19T02:04:56;8.15;;;6.70;;
23390;SDS011;11868;45.606;5.302;2022-08-19T02:07:21;9.40;;;6.80;;
23390;SDS011;11868;45.606;5.302;2022-08-19T02:09:47;9.70;;;6.72;;
23390;SDS011;11868;45.606;5.302;2022-08-19T02:12:13;7.70;;;6.45;;
23390;SDS011;11868;45.606;5.302;2022-08-19T02:14:39;7.72;;;6.85;;
23390;SDS011;11868;45.606;5.302;2022-08-19T02:17:04;9.95;;;7.13;;
23390;SDS011;11868;45.606;5.302;2022-08-19T02:19:30;8.02;;;7.07;;
23390;SDS011;11868;45.606;5.302;2022-08-19T02:21:57;9.70;;;7.35;;
23390;SDS011;11868;45.606;5.302;2022-08-19T02:24:23;8.27;;;6.80;;
23390;SDS011;11868;45.606;5.302;2022-08-19T02:26:48;8.30;;;6.20;;
23390;SDS011;11868;45.606;5.302;2022-08-19T02:29:14;6.32;;;5.68;;
23390;SDS011;11868;45.606;5.302;2022-08-19T02:31:39;7.45;;;5.68;;
23390;SDS011;11868;45.606;5.302;2022-08-19T02:34:05;7.00;;;6.25;;
23390;SDS011;11868;45.606;5.302;2022-08-19T02:36:30;6.15;;;5.55;;
23390;SDS011;11868;45.606;5.302;2022-08-19T02:38:56;7.50;;;5.95;;
23390;SDS011;11868;45.606;5.302;2022-08-19T02:41:22;9.88;;;6.05;;
23390;SDS011;11868;45.606;5.302;2022-08-19T02:43:51;6.63;;;6.00;;
23390;SDS011;11868;45.606;5.302;2022-08-19T02:46:21;8.20;;;6.28;;
23390;SDS011;11868;45.606;5.302;2022-08-19T02:48:49;7.38;;;5.93;;
23390;SDS011;11868;45.606;5.302;2022-08-19T02:51:23;7.45;;;6.05;;
23390;SDS011;11868;45.606;5.302;2022-08-19T02:53:50;8.90;;;5.70;;
23390;SDS011;11868;45.606;5.302;2022-08-19T02:56:16;11.13;;;6.28;;
23390;SDS011;11868;45.606;5.302;2022-08-19T02:58:42;6.97;;;5.53;;
23390;SDS011;11868;45.606;5.302;2022-08-19T03:01:08;7.90;;;5.85;;
23390;SDS011;11868;45.606;5.302;2022-08-19T03:03:35;7.00;;;6.05;;
23390;SDS011;11868;45.606;5.302;2022-08-19T03:06:04;8.20;;;5.82;;
23390;SDS011;11868;45.606;5.302;2022-08-19T03:08:35;8.20;;;6.10;;
23390;SDS011;11868;45.606;5.302;2022-08-19T03:11:01;6.93;;;6.20;;
23390;SDS011;11868;45.606;5.302;2022-08-19T03:13:27;7.28;;;6.38;;
23390;SDS011;11868;45.606;5.302;2022-08-19T03:15:53;8.15;;;6.20;;
23390;SDS011;11868;45.606;5.302;2022-08-19T03:18:18;7.00;;;6.30;;
23390;SDS011;11868;45.606;5.302;2022-08-19T03:20:45;6.68;;;6.07;;
23390;SDS011;11868;45.606;5.302;2022-08-19T03:23:13;8.80;;;6.97;;
23390;SDS011;11868;45.606;5.302;2022-08-19T03:25:43;10.20;;;6.55;;
23390;SDS011;11868;45.606;5.302;2022-08-19T03:28:11;8.70;;;6.50;;
23390;SDS011;11868;45.606;5.302;2022-08-19T03:30:37;7.53;;;6.10;;
23390;SDS011;11868;45.606;5.302;2022-08-19T03:33:05;8.07;;;6.10;;
23390;SDS011;11868;45.606;5.302;2022-08-19T03:35:31;7.65;;;6.38;;
23390;SDS011;11868;45.606;5.302;2022-08-19T03:37:58;8.98;;;6.85;;
23390;SDS011;11868;45.606;5.302;2022-08-19T03:40:24;6.78;;;6.07;;
23390;SDS011;11868;45.606;5.302;2022-08-19T03:42:50;7.70;;;6.05;;
23390;SDS011;11868;45.606;5.302;2022-08-19T03:45:15;9.38;;;6.30;;
23390;SDS011;11868;45.606;5.302;2022-08-19T03:47:41;7.20;;;5.65;;
23390;SDS011;11868;45.606;5.302;2022-08-19T03:50:07;8.38;;;6.97;;
23390;SDS011;11868;45.606;5.302;2022-08-19T03:52:34;7.20;;;5.95;;
23390;SDS011;11868;45.606;5.302;2022-08-19T03:55:01;6.78;;;6.07;;
23390;SDS011;11868;45.606;5.302;2022-08-19T03:57:26;6.82;;;6.22;;
23390;SDS011;11868;45.606;5.302;2022-08-19T03:59:52;7.78;;;6.32;;
23390;SDS011;11868;45.606;5.302;2022-08-19T04:02:19;7.70;;;6.32;;
23390;SDS011;11868;45.606;5.302;2022-08-19T04:04:44;8.27;;;6.60;;
23390;SDS011;11868;45.606;5.302;2022-08-19T04:07:10;8.38;;;6.85;;
23390;SDS011;11868;45.606;5.302;2022-08-19T04:09:40;7.70;;;6.72;;
23390;SDS011;11868;45.606;5.302;2022-08-19T04:12:06;8.80;;;6.53;;
23390;SDS011;11868;45.606;5.302;2022-08-19T04:14:31;7.22;;;6.25;;
23390;SDS011;11868;45.606;5.302;2022-08-19T04:16:58;7.15;;;6.45;;
23390;SDS011;11868;45.606;5.302;2022-08-19T04:19:25;8.88;;;6.55;;
23390;SDS011;11868;45.606;5.302;2022-08-19T04:21:51;7.03;;;6.22;;
23390;SDS011;11868;45.606;5.302;2022-08-19T04:24:18;7.07;;;6.38;;
23390;SDS011;11868;45.606;5.302;2022-08-19T04:26:44;9.15;;;6.53;;
23390;SDS011;11868;45.606;5.302;2022-08-19T04:29:12;8.45;;;6.70;;
23390;SDS011;11868;45.606;5.302;2022-08-19T04:31:50;12.32;;;7.22;;
23390;SDS011;11868;45.606;5.302;2022-08-19T04:34:17;7.93;;;7.03;;
23390;SDS011;11868;45.606;5.302;2022-08-19T04:36:47;8.57;;;6.70;;
23390;SDS011;11868;45.606;5.302;2022-08-19T04:39:16;8.13;;;7.05;;
23390;SDS011;11868;45.606;5.302;2022-08-19T04:41:44;8.75;;;7.30;;
23390;SDS011;11868;45.606;5.302;2022-08-19T04:44:29;10.45;;;7.13;;
23390;SDS011;11868;45.606;5.302;2022-08-19T04:46:55;8.65;;;7.35;;
23390;SDS011;11868;45.606;5.302;2022-08-19T04:49:21;11.32;;;7.20;;
23390;SDS011;11868;45.606;5.302;2022-08-19T04:51:50;9.68;;;7.68;;
23390;SDS011;11868;45.606;5.302;2022-08-19T04:54:18;7.57;;;6.57;;
23390;SDS011;11868;45.606;5.302;2022-08-19T04:56:47;9.32;;;7.55;;
23390;SDS011;11868;45.606;5.302;2022-08-19T05:01:44;8.13;;;7.20;;
23390;SDS011;11868;45.606;5.302;2022-08-19T05:04:13;8.65;;;7.35;;
23390;SDS011;11868;45.606;5.302;2022-08-19T05:06:38;7.75;;;6.95;;
23390;SDS011;11868;45.606;5.302;2022-08-19T05:09:04;8.07;;;6.75;;
23390;SDS011;11868;45.606;5.302;2022-08-19T05:11:34;12.10;;;7.95;;
23390;SDS011;11868;45.606;5.302;2022-08-19T05:14:02;10.00;;;8.00;;
23390;SDS011;11868;45.606;5.302;2022-08-19T05:16:27;10.60;;;7.35;;
23390;SDS011;11868;45.606;5.302;2022-08-19T05:18:53;7.90;;;7.18;;
23390;SDS011;11868;45.606;5.302;2022-08-19T05:21:38;10.15;;;7.90;;
23390;SDS011;11868;45.606;5.302;2022-08-19T05:24:23;10.07;;;7.50;;
23390;SDS011;11868;45.606;5.302;2022-08-19T05:26:49;11.20;;;7.05;;
23390;SDS011;11868;45.606;5.302;2022-08-19T05:29:16;8.30;;;7.03;;
23390;SDS011;11868;45.606;5.302;2022-08-19T05:31:43;9.52;;;7.47;;
23390;SDS011;11868;45.606;5.302;2022-08-19T05:34:09;9.38;;;7.30;;
23390;SDS011;11868;45.606;5.302;2022-08-19T05:36:37;8.45;;;7.60;;
23390;SDS011;11868;45.606;5.302;2022-08-19T05:41:30;10.23;;;8.00;;
23390;SDS011;11868;45.606;5.302;2022-08-19T05:43:56;11.18;;;8.50;;
23390;SDS011;11868;45.606;5.302;2022-08-19T05:46:22;10.23;;;7.72;;
23390;SDS011;11868;45.606;5.302;2022-08-19T05:48:48;9.68;;;8.05;;
23390;SDS011;11868;45.606;5.302;2022-08-19T05:51:13;8.55;;;7.25;;
23390;SDS011;11868;45.606;5.302;2022-08-19T05:53:39;11.07;;;8.75;;
23390;SDS011;11868;45.606;5.302;2022-08-19T05:56:05;8.38;;;7.55;;
23390;SDS011;11868;45.606;5.302;2022-08-19T05:58:31;8.10;;;7.20;;
23390;SDS011;11868;45.606;5.302;2022-08-19T06:00:57;7.50;;;6.80;;
23390;SDS011;11868;45.606;5.302;2022-08-19T06:03:23;9.32;;;6.15;;
23390;SDS011;11868;45.606;5.302;2022-08-19T06:05:49;9.35;;;6.82;;
23390;SDS011;11868;45.606;5.302;2022-08-19T06:08:14;11.48;;;8.07;;
23390;SDS011;11868;45.606;5.302;2022-08-19T06:10:40;12.82;;;8.05;;
23390;SDS011;11868;45.606;5.302;2022-08-19T06:13:05;8.45;;;7.53;;
23390;SDS011;11868;45.606;5.302;2022-08-19T06:15:30;10.50;;;7.80;;
23390;SDS011;11868;45.606;5.302;2022-08-19T06:17:56;8.57;;;7.68;;
23390;SDS011;11868;45.606;5.302;2022-08-19T06:20:21;8.32;;;7.45;;
23390;SDS011;11868;45.606;5.302;2022-08-19T06:22:47;9.63;;;7.30;;
23390;SDS011;11868;45.606;5.302;2022-08-19T06:27:42;8.13;;;7.32;;
23390;SDS011;11868;45.606;5.302;2022-08-19T06:30:08;7.38;;;6.53;;
23390;SDS011;11868;45.606;5.302;2022-08-19T06:32:35;9.38;;;6.95;;
23390;SDS011;11868;45.606;5.302;2022-08-19T06:35:00;7.40;;;6.60;;
23390;SDS011;11868;45.606;5.302;2022-08-19T06:37:25;8.93;;;6.82;;
23390;SDS011;11868;45.606;5.302;2022-08-19T06:39:51;9.95;;;7.22;;
23390;SDS011;11868;45.606;5.302;2022-08-19T06:42:16;7.25;;;6.60;;
23390;SDS011;11868;45.606;5.302;2022-08-19T06:44:44;7.60;;;6.35;;
23390;SDS011;11868;45.606;5.302;2022-08-19T06:47:15;8.57;;;7.00;;
23390;SDS011;11868;45.606;5.302;2022-08-19T06:49:42;8.63;;;7.00;;
23390;SDS011;11868;45.606;5.302;2022-08-19T06:52:08;8.73;;;7.72;;
23390;SDS011;11868;45.606;5.302;2022-08-19T06:54:37;8.00;;;7.28;;
23390;SDS011;11868;45.606;5.302;2022-08-19T06:57:03;8.23;;;7.10;;
23390;SDS011;11868;45.606;5.302;2022-08-19T06:59:29;8.23;;;6.85;;
23390;SDS011;11868;45.606;5.302;2022-08-19T07:01:56;8.82;;;6.93;;
23390;SDS011;11868;45.606;5.302;2022-08-19T07:04:24;9.70;;;7.45;;
23390;SDS011;11868;45.606;5.302;2022-08-19T07:06:55;9.03;;;7.57;;
23390;SDS011;11868;45.606;5.302;2022-08-19T07:09:34;8.68;;;7.30;;
23390;SDS011;11868;45.606;5.302;2022-08-19T07:12:02;8.63;;;7.72;;
23390;SDS011;11868;45.606;5.302;2022-08-19T07:14:29;11.45;;;7.78;;
23390;SDS011;11868;45.606;5.302;2022-08-19T07:16:55;9.23;;;7.88;;
23390;SDS011;11868;45.606;5.302;2022-08-19T07:19:21;10.13;;;8.02;;
23390;SDS011;11868;45.606;5.302;2022-08-19T07:21:49;9.27;;;7.75;;
23390;SDS011;11868;45.606;5.302;2022-08-19T07:24:19;9.07;;;8.02;;
23390;SDS011;11868;45.606;5.302;2022-08-19T07:26:49;13.60;;;8.82;;
23390;SDS011;11868;45.606;5.302;2022-08-19T07:29:16;9.68;;;8.68;;
23390;SDS011;11868;45.606;5.302;2022-08-19T07:31:51;9.13;;;8.20;;
23390;SDS011;11868;45.606;5.302;2022-08-19T07:34:17;9.90;;;8.18;;
23390;SDS011;11868;45.606;5.302;2022-08-19T07:36:43;9.73;;;8.18;;
23390;SDS011;11868;45.606;5.302;2022-08-19T07:39:11;9.32;;;8.38;;
23390;SDS011;11868;45.606;5.302;2022-08-19T07:41:45;10.95;;;9.07;;
23390;SDS011;11868;45.606;5.302;2022-08-19T07:44:11;10.02;;;9.02;;
23390;SDS011;11868;45.606;5.302;2022-08-19T07:46:39;11.30;;;8.52;;
23390;SDS011;11868;45.606;5.302;2022-08-19T07:49:07;13.38;;;9.32;;
23390;SDS011;11868;45.606;5.302;2022-08-19T07:51:47;12.30;;;9.45;;
23390;SDS011;11868;45.606;5.302;2022-08-19T07:54:26;11.32;;;9.65;;
23390;SDS011;11868;45.606;5.302;2022-08-19T07:56:53;11.18;;;9.63;;
23390;SDS011;11868;45.606;5.302;2022-08-19T07:59:19;9.75;;;8.75;;
23390;SDS011;11868;45.606;5.302;2022-08-19T08:01:46;11.93;;;9.27;;
23390;SDS011;11868;45.606;5.302;2022-08-19T08:04:13;13.02;;;8.98;;
23390;SDS011;11868;45.606;5.302;2022-08-19T08:06:57;14.10;;;10.15;;
23390;SDS011;11868;45.606;5.302;2022-08-19T08:09:42;11.05;;;9.77;;
23390;SDS011;11868;45.606;5.302;2022-08-19T08:12:10;11.60;;;10.15;;
23390;SDS011;11868;45.606;5.302;2022-08-19T08:14:48;19.10;;;9.57;;
23390;SDS011;11868;45.606;5.302;2022-08-19T08:17:18;11.70;;;9.90;;
23390;SDS011;11868;45.606;5.302;2022-08-19T08:19:46;14.07;;;10.73;;
23390;SDS011;11868;45.606;5.302;2022-08-19T08:22:15;14.98;;;9.80;;
23390;SDS011;11868;45.606;5.302;2022-08-19T08:25:14;19.40;;;11.27;;
23390;SDS011;11868;45.606;5.302;2022-08-19T08:27:43;13.15;;;10.65;;
23390;SDS011;11868;45.606;5.302;2022-08-19T08:30:10;15.52;;;11.02;;
23390;SDS011;11868;45.606;5.302;2022-08-19T08:35:06;16.38;;;12.40;;
23390;SDS011;11868;45.606;5.302;2022-08-19T08:37:33;13.00;;;11.60;;
23390;SDS011;11868;45.606;5.302;2022-08-19T08:40:02;17.13;;;11.82;;
23390;SDS011;11868;45.606;5.302;2022-08-19T08:42:34;15.73;;;11.82;;
23390;SDS011;11868;45.606;5.302;2022-08-19T08:45:12;14.35;;;11.50;;
23390;SDS011;11868;45.606;5.302;2022-08-19T08:47:41;14.02;;;10.65;;
23390;SDS011;11868;45.606;5.302;2022-08-19T08:50:32;15.27;;;11.32;;
23390;SDS011;11868;45.606;5.302;2022-08-19T08:53:00;13.13;;;11.52;;
23390;SDS011;11868;45.606;5.302;2022-08-19T08:55:27;14.23;;;12.43;;
23390;SDS011;11868;45.606;5.302;2022-08-19T09:00:32;18.67;;;13.50;;
23390;SDS011;11868;45.606;5.302;2022-08-19T09:02:59;18.77;;;14.33;;
23390;SDS011;11868;45.606;5.302;2022-08-19T09:05:30;16.80;;;12.82;;
23390;SDS011;11868;45.606;5.302;2022-08-19T09:10:40;17.00;;;13.63;;
23390;SDS011;11868;45.606;5.302;2022-08-19T09:15:48;21.42;;;14.95;;
23390;SDS011;11868;45.606;5.302;2022-08-19T09:18:19;21.55;;;14.32;;
23390;SDS011;11868;45.606;5.302;2022-08-19T09:20:45;16.75;;;14.82;;
23390;SDS011;11868;45.606;5.302;2022-08-19T09:23:12;23.15;;;16.08;;
23390;SDS011;11868;45.606;5.302;2022-08-19T09:25:37;17.80;;;14.68;;
23390;SDS011;11868;45.606;5.302;2022-08-19T09:28:05;20.58;;;16.15;;
23390;SDS011;11868;45.606;5.302;2022-08-19T09:30:31;22.90;;;16.45;;
23390;SDS011;11868;45.606;5.302;2022-08-19T09:32:59;18.77;;;15.30;;
23390;SDS011;11868;45.606;5.302;2022-08-19T09:35:26;20.40;;;17.23;;
23390;SDS011;11868;45.606;5.302;2022-08-19T09:37:53;20.35;;;16.20;;
23390;SDS011;11868;45.606;5.302;2022-08-19T09:40:19;24.35;;;15.95;;
23390;SDS011;11868;45.606;5.302;2022-08-19T09:42:45;21.10;;;16.98;;
23390;SDS011;11868;45.606;5.302;2022-08-19T09:45:14;26.70;;;17.45;;
23390;SDS011;11868;45.606;5.302;2022-08-19T09:47:40;18.83;;;16.52;;
23390;SDS011;11868;45.606;5.302;2022-08-19T09:50:07;20.52;;;17.33;;
23390;SDS011;11868;45.606;5.302;2022-08-19T09:52:34;20.75;;;17.33;;
23390;SDS011;11868;45.606;5.302;2022-08-19T09:55:02;19.55;;;16.63;;
23390;SDS011;11868;45.606;5.302;2022-08-19T09:57:31;20.15;;;16.27;;
23390;SDS011;11868;45.606;5.302;2022-08-19T09:59:57;23.02;;;17.30;;
23390;SDS011;11868;45.606;5.302;2022-08-19T10:02:23;19.25;;;16.33;;
23390;SDS011;11868;45.606;5.302;2022-08-19T10:04:49;24.35;;;17.58;;
23390;SDS011;11868;45.606;5.302;2022-08-19T10:07:33;18.15;;;15.75;;
23390;SDS011;11868;45.606;5.302;2022-08-19T10:09:59;19.55;;;16.65;;
23390;SDS011;11868;45.606;5.302;2022-08-19T10:12:24;22.70;;;16.48;;
23390;SDS011;11868;45.606;5.302;2022-08-19T10:14:50;21.83;;;16.83;;
23390;SDS011;11868;45.606;5.302;2022-08-19T10:17:18;21.58;;;16.38;;
23390;SDS011;11868;45.606;5.302;2022-08-19T10:19:43;18.10;;;16.08;;
23390;SDS011;11868;45.606;5.302;2022-08-19T10:22:09;18.67;;;15.95;;
23390;SDS011;11868;45.606;5.302;2022-08-19T10:27:03;17.98;;;15.25;;
23390;SDS011;11868;45.606;5.302;2022-08-19T10:29:31;20.15;;;16.20;;
23390;SDS011;11868;45.606;5.302;2022-08-19T10:31:57;21.25;;;16.35;;
23390;SDS011;11868;45.606;5.302;2022-08-19T10:34:23;19.50;;;16.35;;
23390;SDS011;11868;45.606;5.302;2022-08-19T10:36:49;18.52;;;16.38;;
23390;SDS011;11868;45.606;5.302;2022-08-19T10:39:15;17.83;;;15.82;;
23390;SDS011;11868;45.606;5.302;2022-08-19T10:41:40;19.65;;;16.63;;
23390;SDS011;11868;45.606;5.302;2022-08-19T10:44:10;19.90;;;16.35;;
23390;SDS011;11868;45.606;5.302;2022-08-19T10:46:37;21.63;;;17.20;;
23390;SDS011;11868;45.606;5.302;2022-08-19T10:49:06;22.25;;;17.50;;
23390;SDS011;11868;45.606;5.302;2022-08-19T10:51:32;20.52;;;17.17;;
23390;SDS011;11868;45.606;5.302;2022-08-19T10:54:16;23.52;;;16.33;;
23390;SDS011;11868;45.606;5.302;2022-08-19T10:56:42;19.55;;;16.20;;
23390;SDS011;11868;45.606;5.302;2022-08-19T10:59:24;20.35;;;15.98;;
23390;SDS011;11868;45.606;5.302;2022-08-19T11:01:52;19.27;;;16.60;;
23390;SDS011;11868;45.606;5.302;2022-08-19T11:04:19;22.95;;;16.67;;
23390;SDS011;11868;45.606;5.302;2022-08-19T11:06:45;25.02;;;16.55;;
23390;SDS011;11868;45.606;5.302;2022-08-19T11:09:19;19.75;;;15.93;;
23390;SDS011;11868;45.606;5.302;2022-08-19T11:11:46;24.15;;;16.40;;
23390;SDS011;11868;45.606;5.302;2022-08-19T11:14:13;18.75;;;15.35;;
23390;SDS011;11868;45.606;5.302;2022-08-19T11:16:40;20.92;;;15.25;;
23390;SDS011;11868;45.606;5.302;2022-08-19T11:19:06;21.58;;;15.45;;
23390;SDS011;11868;45.606;5.302;2022-08-19T11:21:34;18.63;;;15.52;;
23390;SDS011;11868;45.606;5.302;2022-08-19T11:24:03;16.67;;;14.48;;
23390;SDS011;11868;45.606;5.302;2022-08-19T11:26:30;22.15;;;15.15;;
23390;SDS011;11868;45.606;5.302;2022-08-19T11:28:57;20.85;;;13.70;;
23390;SDS011;11868;45.606;5.302;2022-08-19T11:31:24;16.25;;;14.35;;
23390;SDS011;11868;45.606;5.302;2022-08-19T11:33:52;22.08;;;15.13;;
23390;SDS011;11868;45.606;5.302;2022-08-19T11:36:19;20.85;;;15.05;;
23390;SDS011;11868;45.606;5.302;2022-08-19T11:38:46;17.85;;;15.13;;
23390;SDS011;11868;45.606;5.302;2022-08-19T11:41:14;22.90;;;15.18;;
23390;SDS011;11868;45.606;5.302;2022-08-19T11:43:40;22.08;;;15.63;;
23390;SDS011;11868;45.606;5.302;2022-08-19T11:46:06;18.05;;;14.30;;
23390;SDS011;11868;45.606;5.302;2022-08-19T11:48:33;18.55;;;15.13;;
23390;SDS011;11868;45.606;5.302;2022-08-19T11:51:02;20.50;;;15.02;;
23390;SDS011;11868;45.606;5.302;2022-08-19T11:53:31;20.55;;;15.45;;
23390;SDS011;11868;45.606;5.302;2022-08-19T11:55:57;19.15;;;15.23;;
23390;SDS011;11868;45.606;5.302;2022-08-19T11:58:22;18.10;;;14.30;;
23390;SDS011;11868;45.606;5.302;2022-08-19T12:00:49;15.52;;;13.85;;
23390;SDS011;11868;45.606;5.302;2022-08-19T12:03:15;22.48;;;15.32;;
23390;SDS011;11868;45.606;5.302;2022-08-19T12:05:41;18.83;;;15.13;;
23390;SDS011;11868;45.606;5.302;2022-08-19T12:08:06;17.15;;;14.43;;
23390;SDS011;11868;45.606;5.302;2022-08-19T12:10:32;24.30;;;14.95;;
23390;SDS011;11868;45.606;5.302;2022-08-19T12:12:58;18.75;;;14.73;;
23390;SDS011;11868;45.606;5.302;2022-08-19T12:15:24;17.00;;;14.82;;
23390;SDS011;11868;45.606;5.302;2022-08-19T12:17:54;15.52;;;13.77;;
23390;SDS011;11868;45.606;5.302;2022-08-19T12:20:22;21.98;;;14.82;;
23390;SDS011;11868;45.606;5.302;2022-08-19T12:22:48;17.48;;;15.57;;
23390;SDS011;11868;45.606;5.302;2022-08-19T12:25:14;17.10;;;13.75;;
23390;SDS011;11868;45.606;5.302;2022-08-19T12:27:39;18.95;;;14.90;;
23390;SDS011;11868;45.606;5.302;2022-08-19T12:30:06;16.80;;;14.52;;
23390;SDS011;11868;45.606;5.302;2022-08-19T12:32:33;21.77;;;14.48;;
23390;SDS011;11868;45.606;5.302;2022-08-19T12:34:59;18.00;;;14.13;;
23390;SDS011;11868;45.606;5.302;2022-08-19T12:37:24;16.33;;;13.30;;
23390;SDS011;11868;45.606;5.302;2022-08-19T12:39:50;17.80;;;13.88;;
23390;SDS011;11868;45.606;5.302;2022-08-19T12:42:16;17.60;;;13.98;;
23390;SDS011;11868;45.606;5.302;2022-08-19T12:44:43;15.10;;;13.55;;
23390;SDS011;11868;45.606;5.302;2022-08-19T12:47:10;19.35;;;13.75;;
23390;SDS011;11868;45.606;5.302;2022-08-19T12:49:36;16.70;;;13.43;;
23390;SDS011;11868;45.606;5.302;2022-08-19T12:52:07;17.50;;;13.18;;
23390;SDS011;11868;45.606;5.302;2022-08-19T12:54:34;18.10;;;13.70;;
23390;SDS011;11868;45.606;5.302;2022-08-19T12:57:00;16.65;;;13.50;;
23390;SDS011;11868;45.606;5.302;2022-08-19T12:59:26;18.23;;;13.55;;
23390;SDS011;11868;45.606;5.302;2022-08-19T13:01:52;15.48;;;13.82;;
23390;SDS011;11868;45.606;5.302;2022-08-19T13:04:18;16.90;;;12.80;;
23390;SDS011;11868;45.606;5.302;2022-08-19T13:06:43;18.50;;;13.95;;
23390;SDS011;11868;45.606;5.302;2022-08-19T13:09:09;16.70;;;13.25;;
23390;SDS011;11868;45.606;5.302;2022-08-19T13:11:34;20.73;;;13.18;;
23390;SDS011;11868;45.606;5.302;2022-08-19T13:14:01;18.58;;;12.68;;
23390;SDS011;11868;45.606;5.302;2022-08-19T13:16:27;15.60;;;12.85;;
23390;SDS011;11868;45.606;5.302;2022-08-19T13:18:53;19.90;;;13.48;;
23390;SDS011;11868;45.606;5.302;2022-08-19T13:21:20;16.80;;;11.95;;
23390;SDS011;11868;45.606;5.302;2022-08-19T13:23:48;16.85;;;12.70;;
23390;SDS011;11868;45.606;5.302;2022-08-19T13:26:13;13.57;;;11.95;;
23390;SDS011;11868;45.606;5.302;2022-08-19T13:28:39;16.90;;;11.70;;
23390;SDS011;11868;45.606;5.302;2022-08-19T13:31:27;13.73;;;12.05;;
23390;SDS011;11868;45.606;5.302;2022-08-19T13:34:12;17.92;;;12.23;;
23390;SDS011;11868;45.606;5.302;2022-08-19T13:36:38;12.20;;;10.70;;
23390;SDS011;11868;45.606;5.302;2022-08-19T13:39:04;16.10;;;11.60;;
23390;SDS011;11868;45.606;5.302;2022-08-19T13:41:30;13.95;;;11.75;;
23390;SDS011;11868;45.606;5.302;2022-08-19T13:43:56;15.60;;;11.00;;
23390;SDS011;11868;45.606;5.302;2022-08-19T13:46:21;17.52;;;10.68;;
23390;SDS011;11868;45.606;5.302;2022-08-19T13:48:47;16.13;;;12.05;;
23390;SDS011;11868;45.606;5.302;2022-08-19T13:51:13;14.25;;;10.93;;
23390;SDS011;11868;45.606;5.302;2022-08-19T13:53:42;12.95;;;10.77;;
23390;SDS011;11868;45.606;5.302;2022-08-19T13:56:09;15.65;;;11.20;;
23390;SDS011;11868;45.606;5.302;2022-08-19T13:58:38;15.90;;;10.80;;
23390;SDS011;11868;45.606;5.302;2022-08-19T14:01:04;14.75;;;11.05;;
23390;SDS011;11868;45.606;5.302;2022-08-19T14:03:30;13.73;;;10.23;;
23390;SDS011;11868;45.606;5.302;2022-08-19T14:05:56;13.82;;;10.35;;
23390;SDS011;11868;45.606;5.302;2022-08-19T14:08:21;12.10;;;9.90;;
23390;SDS011;11868;45.606;5.302;2022-08-19T14:10:47;11.40;;;10.07;;
23390;SDS011;11868;45.606;5.302;2022-08-19T14:13:18;11.30;;;9.85;;
23390;SDS011;11868;45.606;5.302;2022-08-19T14:15:44;12.55;;;9.27;;
23390;SDS011;11868;45.606;5.302;2022-08-19T14:18:10;12.02;;;9.77;;
23390;SDS011;11868;45.606;5.302;2022-08-19T14:20:36;12.57;;;8.73;;
23390;SDS011;11868;45.606;5.302;2022-08-19T14:23:02;12.57;;;9.00;;
23390;SDS011;11868;45.606;5.302;2022-08-19T14:25:30;9.02;;;7.70;;
23390;SDS011;11868;45.606;5.302;2022-08-19T14:27:56;11.23;;;8.50;;
23390;SDS011;11868;45.606;5.302;2022-08-19T14:30:25;9.20;;;8.05;;
23390;SDS011;11868;45.606;5.302;2022-08-19T14:32:53;12.48;;;7.50;;
23390;SDS011;11868;45.606;5.302;2022-08-19T14:35:20;11.43;;;7.30;;
23390;SDS011;11868;45.606;5.302;2022-08-19T14:37:48;9.80;;;7.65;;
23390;SDS011;11868;45.606;5.302;2022-08-19T14:40:15;7.57;;;6.72;;
23390;SDS011;11868;45.606;5.302;2022-08-19T14:42:43;8.60;;;7.28;;
23390;SDS011;11868;45.606;5.302;2022-08-19T14:45:09;29.55;;;8.45;;
23390;SDS011;11868;45.606;5.302;2022-08-19T14:47:35;9.27;;;6.65;;
23390;SDS011;11868;45.606;5.302;2022-08-19T14:50:01;9.85;;;7.00;;
23390;SDS011;11868;45.606;5.302;2022-08-19T14:52:26;8.35;;;6.20;;
23390;SDS011;11868;45.606;5.302;2022-08-19T14:54:52;11.77;;;7.32;;
23390;SDS011;11868;45.606;5.302;2022-08-19T14:57:17;10.63;;;6.45;;
23390;SDS011;11868;45.606;5.302;2022-08-19T14:59:43;9.93;;;6.22;;